Time,TemperatureF,DewpointF,PressureIn,WindDirection,WindDirectionDegrees,WindSpeedMPH,WindSpeedGustMPH,Humidity,HourlyPrecipIn,Conditions,Clouds,dailyrainin,SoftwareType,DateUTC
2013-03-06 00:00:00,60.4,54.6,29.82,SSW,202,0.0,0.0,81,0.00,,---,0.00,VWS V14.01,2013-03-06 05:00:00,
2013-03-06 00:01:00,60.3,53.0,29.85,SSW,202,3.1,3.1,77,0.00,,---,0.00,VWS V14.01,2013-03-06 05:01:00,
2013-03-06 00:04:00,60.4,53.6,29.85,WSW,248,0.0,3.1,78,0.00,,---,0.00,VWS V14.01,2013-03-06 05:04:00,
2013-03-06 00:05:00,60.4,54.6,29.82,West,270,0.0,2.9,81,0.00,,---,0.00,VWS V14.01,2013-03-06 05:05:00,
2013-03-06 00:09:00,60.6,54.4,29.85,West,270,0.0,4.5,80,0.00,,---,0.00,VWS V14.01,2013-03-06 05:09:00,
2013-03-06 00:10:00,60.6,55.1,29.82,SSW,202,0.0,3.4,82,0.00,,---,0.00,VWS V14.01,2013-03-06 05:10:00,
2013-03-06 00:14:00,60.3,53.4,29.82,ESE,112,0.0,0.9,78,0.00,,---,0.00,VWS V14.01,2013-03-06 05:14:00,
2013-03-06 00:15:00,60.6,54.8,29.80,SSE,158,0.9,0.9,81,0.00,,---,0.00,VWS V14.01,2013-03-06 05:15:00,
2013-03-06 00:19:00,60.3,53.4,29.82,SSW,202,0.0,3.8,78,0.00,,---,0.00,VWS V14.01,2013-03-06 05:19:00,
2013-03-06 00:20:00,60.8,54.6,29.80,SW,225,0.0,0.9,80,0.00,,---,0.00,VWS V14.01,2013-03-06 05:20:00,
2013-03-06 00:24:00,60.1,52.9,29.82,NNE,22,0.0,0.0,77,0.00,,---,0.00,VWS V14.01,2013-03-06 05:24:00,
2013-03-06 00:25:00,61.0,55.1,29.80,SW,225,0.0,0.0,81,0.00,,---,0.00,VWS V14.01,2013-03-06 05:25:00,
2013-03-06 00:29:00,60.1,53.2,29.82,NW,315,0.0,3.4,78,0.00,,---,0.00,VWS V14.01,2013-03-06 05:29:00,
2013-03-06 00:30:00,60.6,54.4,29.82,WSW,248,0.0,0.0,80,0.00,,---,0.00,VWS V14.01,2013-03-06 05:30:00,
2013-03-06 00:34:00,60.1,53.2,29.82,NNW,338,2.0,3.1,78,0.00,,---,0.00,VWS V14.01,2013-03-06 05:34:00,
2013-03-06 00:35:00,60.8,55.6,29.82,South,180,0.0,4.0,83,0.00,,---,0.00,VWS V14.01,2013-03-06 05:35:00,
2013-03-06 00:39:00,60.1,53.6,29.82,West,270,0.0,0.0,79,0.00,,---,0.00,VWS V14.01,2013-03-06 05:39:00,
2013-03-06 00:40:00,61.2,56.0,29.82,East,90,0.0,5.4,83,0.00,,---,0.00,VWS V14.01,2013-03-06 05:40:00,
2013-03-06 00:44:00,60.1,53.2,29.82,South,180,0.0,0.0,78,0.00,,---,0.00,VWS V14.01,2013-03-06 05:44:00,
2013-03-06 00:45:00,61.0,55.5,29.82,SSW,202,0.0,4.9,82,0.00,,---,0.00,VWS V14.01,2013-03-06 05:45:00,
2013-03-06 00:49:00,60.1,53.6,29.82,WNW,292,0.0,0.0,79,0.00,,---,0.00,VWS V14.01,2013-03-06 05:49:00,
2013-03-06 00:50:00,61.3,56.1,29.82,South,180,2.0,5.4,83,0.00,,---,0.00,VWS V14.01,2013-03-06 05:50:00,
2013-03-06 00:54:00,59.9,53.4,29.82,South,180,0.0,0.0,79,0.00,,---,0.00,VWS V14.01,2013-03-06 05:54:00,
2013-03-06 00:55:00,61.5,56.3,29.82,WSW,248,0.0,3.8,83,0.00,,---,0.00,VWS V14.01,2013-03-06 05:55:00,
2013-03-06 00:59:00,60.4,54.6,29.82,ESE,112,0.0,0.0,81,0.00,,---,0.00,VWS V14.01,2013-03-06 05:59:00,
2013-03-06 01:00:00,61.3,56.1,29.80,SW,225,0.0,5.8,83,0.00,,---,0.00,VWS V14.01,2013-03-06 06:00:00,
2013-03-06 01:04:00,60.4,54.6,29.82,West,270,0.0,2.9,81,0.00,,---,0.00,VWS V14.01,2013-03-06 06:04:00,
2013-03-06 01:05:00,61.0,55.1,29.80,WSW,248,0.0,0.0,81,0.00,,---,0.00,VWS V14.01,2013-03-06 06:05:00,
2013-03-06 01:09:00,60.6,55.1,29.82,WSW,248,0.0,3.4,82,0.00,,---,0.00,VWS V14.01,2013-03-06 06:09:00,
2013-03-06 01:10:00,61.0,55.1,29.80,WSW,248,0.0,3.8,81,0.00,,---,0.00,VWS V14.01,2013-03-06 06:10:00,
2013-03-06 01:14:00,60.6,54.8,29.79,SSE,158,0.0,0.0,81,0.00,,---,0.00,VWS V14.01,2013-03-06 06:14:00,
2013-03-06 01:15:00,61.2,55.6,29.80,SSE,158,0.0,3.6,82,0.00,,---,0.00,VWS V14.01,2013-03-06 06:15:00,
2013-03-06 01:19:00,60.8,54.9,29.79,ESE,112,0.0,0.9,81,0.00,,---,0.00,VWS V14.01,2013-03-06 06:19:00,
2013-03-06 01:20:00,61.3,56.1,29.80,NNE,22,0.0,1.6,83,0.00,,---,0.00,VWS V14.01,2013-03-06 06:20:00,
2013-03-06 01:24:00,61.0,55.1,29.79,South,180,0.0,0.0,81,0.00,,---,0.00,VWS V14.01,2013-03-06 06:24:00,
2013-03-06 01:25:00,61.5,56.0,29.80,NW,315,0.0,0.0,82,0.00,,---,0.00,VWS V14.01,2013-03-06 06:25:00,
2013-03-06 01:29:00,60.8,54.9,29.82,SW,225,0.0,0.0,81,0.00,,---,0.00,VWS V14.01,2013-03-06 06:29:00,
2013-03-06 01:30:00,61.3,56.1,29.80,NNW,338,0.0,2.9,83,0.00,,---,0.00,VWS V14.01,2013-03-06 06:30:00,
2013-03-06 01:34:00,60.6,55.1,29.82,NW,315,0.0,3.6,82,0.00,,---,0.00,VWS V14.01,2013-03-06 06:34:00,
2013-03-06 01:35:00,61.3,56.1,29.80,SW,225,0.0,2.9,83,0.00,,---,0.00,VWS V14.01,2013-03-06 06:35:00,
2013-03-06 01:39:00,61.3,56.5,29.82,SSW,202,0.0,5.4,84,0.00,,---,0.00,VWS V14.01,2013-03-06 06:39:00,
2013-03-06 01:40:00,61.2,55.6,29.80,SW,225,0.0,1.1,82,0.00,,---,0.00,VWS V14.01,2013-03-06 06:40:00,
2013-03-06 01:44:00,61.0,55.8,29.82,WSW,248,0.0,4.9,83,0.00,,---,0.00,VWS V14.01,2013-03-06 06:44:00,
2013-03-06 01:45:00,61.0,55.5,29.80,ESE,112,0.0,0.0,82,0.00,,---,0.00,VWS V14.01,2013-03-06 06:45:00,
2013-03-06 01:49:00,61.2,55.6,29.82,SSE,158,0.0,0.0,82,0.00,,---,0.00,VWS V14.01,2013-03-06 06:49:00,
2013-03-06 01:50:00,60.8,55.3,29.80,ENE,68,0.0,0.0,82,0.00,,---,0.00,VWS V14.01,2013-03-06 06:50:00,
2013-03-06 01:54:00,61.5,56.3,29.82,SSE,158,0.0,3.8,83,0.00,,---,0.00,VWS V14.01,2013-03-06 06:54:00,
2013-03-06 01:55:00,60.6,55.4,29.80,NNE,22,0.0,0.0,83,0.00,,---,0.00,VWS V14.01,2013-03-06 06:55:00,
2013-03-06 01:59:00,61.3,55.8,29.79,ENE,68,0.0,2.2,82,0.00,,---,0.00,VWS V14.01,2013-03-06 06:59:00,
2013-03-06 02:00:00,60.8,55.6,29.76,South,180,0.0,0.0,83,0.00,,---,0.00,VWS V14.01,2013-03-06 07:00:00,
2013-03-06 02:04:00,61.0,55.1,29.79,West,270,0.0,0.0,81,0.00,,---,0.00,VWS V14.01,2013-03-06 07:04:00,
2013-03-06 02:05:00,61.2,56.0,29.76,South,180,0.0,0.0,83,0.00,,---,0.00,VWS V14.01,2013-03-06 07:05:00,
2013-03-06 02:09:00,61.0,55.1,29.79,SSW,202,0.0,3.8,81,0.00,,---,0.00,VWS V14.01,2013-03-06 07:09:00,
2013-03-06 02:10:00,61.5,57.0,29.76,South,180,0.0,2.5,85,0.00,,---,0.00,VWS V14.01,2013-03-06 07:10:00,
2013-03-06 02:14:00,61.0,55.5,29.79,SSW,202,0.0,2.2,82,0.00,,---,0.00,VWS V14.01,2013-03-06 07:14:00,
2013-03-06 02:15:00,61.7,56.8,29.76,North,0,0.0,0.0,84,0.00,,---,0.00,VWS V14.01,2013-03-06 07:15:00,
2013-03-06 02:19:00,61.3,56.1,29.79,SSW,202,0.0,1.6,83,0.00,,---,0.00,VWS V14.01,2013-03-06 07:19:00,
2013-03-06 02:20:00,61.9,57.0,29.76,WNW,292,0.0,3.1,84,0.00,,---,0.00,VWS V14.01,2013-03-06 07:20:00,
2013-03-06 02:24:00,61.5,56.0,29.79,SW,225,0.0,0.0,82,0.00,,---,0.00,VWS V14.01,2013-03-06 07:24:00,
2013-03-06 02:25:00,62.1,57.5,29.76,NNW,338,0.0,1.6,85,0.00,,---,0.00,VWS V14.01,2013-03-06 07:25:00,
2013-03-06 02:29:00,61.3,56.1,29.79,SSE,158,2.0,2.9,83,0.00,,---,0.00,VWS V14.01,2013-03-06 07:29:00,
2013-03-06 02:30:00,62.2,57.7,29.76,NE,45,0.0,0.0,85,0.00,,---,0.00,VWS V14.01,2013-03-06 07:30:00,
2013-03-06 02:34:00,61.3,56.1,29.79,East,90,2.9,2.9,83,0.00,,---,0.00,VWS V14.01,2013-03-06 07:34:00,
2013-03-06 02:35:00,62.2,57.7,29.76,West,270,0.0,0.0,85,0.00,,---,0.00,VWS V14.01,2013-03-06 07:35:00,
2013-03-06 02:39:00,61.2,55.6,29.79,SW,225,0.0,1.1,82,0.00,,---,0.00,VWS V14.01,2013-03-06 07:39:00,
2013-03-06 02:40:00,62.2,57.7,29.76,SSW,202,0.0,0.0,85,0.00,,---,0.00,VWS V14.01,2013-03-06 07:40:00,
2013-03-06 02:44:00,61.0,55.5,29.79,SSE,158,0.0,0.0,82,0.00,,---,0.00,VWS V14.01,2013-03-06 07:44:00,
2013-03-06 02:45:00,62.4,57.9,29.76,NW,315,0.0,0.0,85,0.00,,---,0.00,VWS V14.01,2013-03-06 07:45:00,
2013-03-06 02:49:00,61.0,55.5,29.79,NNE,22,0.0,0.0,82,0.00,,---,0.00,VWS V14.01,2013-03-06 07:49:00,
2013-03-06 02:50:00,62.6,57.7,29.76,WNW,292,2.2,2.2,84,0.00,,---,0.00,VWS V14.01,2013-03-06 07:50:00,
2013-03-06 02:54:00,60.6,55.4,29.79,SSW,202,0.0,0.0,83,0.00,,---,0.00,VWS V14.01,2013-03-06 07:54:00,
2013-03-06 02:55:00,63.0,59.4,29.76,West,270,0.0,3.6,88,0.00,,---,0.00,VWS V14.01,2013-03-06 07:55:00,
2013-03-06 02:59:00,60.6,55.4,29.76,SW,225,0.0,0.0,83,0.00,,---,0.00,VWS V14.01,2013-03-06 07:59:00,
2013-03-06 03:00:00,63.3,60.3,29.76,West,270,0.0,4.7,90,0.00,,---,0.00,VWS V14.01,2013-03-06 08:00:00,
2013-03-06 03:04:00,61.2,56.0,29.76,SSE,158,0.0,0.0,83,0.00,,---,0.00,VWS V14.01,2013-03-06 08:04:00,
2013-03-06 03:05:00,63.5,60.8,29.76,West,270,3.8,6.3,91,0.00,,---,0.00,VWS V14.01,2013-03-06 08:05:00,
2013-03-06 03:09:00,61.5,57.0,29.76,SSE,158,0.0,2.5,85,0.00,,---,0.00,VWS V14.01,2013-03-06 08:09:00,
2013-03-06 03:10:00,63.3,58.7,29.76,West,270,0.0,5.8,85,0.00,,---,0.00,VWS V14.01,2013-03-06 08:10:00,
2013-03-06 03:14:00,61.7,56.8,29.76,WSW,248,0.0,0.0,84,0.00,,---,0.00,VWS V14.01,2013-03-06 08:14:00,
2013-03-06 03:15:00,62.8,55.8,29.80,NNW,338,2.0,3.6,78,0.00,,---,0.00,VWS V14.01,2013-03-06 08:15:00,
2013-03-06 03:19:00,61.9,57.3,29.76,WNW,292,0.0,3.1,85,0.00,,---,0.00,VWS V14.01,2013-03-06 08:19:00,
2013-03-06 03:20:00,62.4,52.9,29.80,WNW,292,2.0,5.6,71,0.00,,---,0.00,VWS V14.01,2013-03-06 08:20:00,
2013-03-06 03:24:00,62.1,57.5,29.76,ENE,68,0.0,1.6,85,0.00,,---,0.00,VWS V14.01,2013-03-06 08:24:00,
2013-03-06 03:25:00,61.9,50.8,29.80,WNW,292,1.6,3.8,67,0.00,,---,0.00,VWS V14.01,2013-03-06 08:25:00,
2013-03-06 03:29:00,62.1,57.5,29.76,SSE,158,0.0,0.0,85,0.00,,---,0.00,VWS V14.01,2013-03-06 08:29:00,
2013-03-06 03:30:00,61.7,50.2,29.80,West,270,1.6,4.3,66,0.00,,---,0.00,VWS V14.01,2013-03-06 08:30:00,
2013-03-06 03:34:00,62.2,57.7,29.76,West,270,0.0,0.0,85,0.00,,---,0.00,VWS V14.01,2013-03-06 08:34:00,
2013-03-06 03:35:00,61.5,49.7,29.80,WNW,292,1.6,5.4,65,0.00,,---,0.00,VWS V14.01,2013-03-06 08:35:00,
2013-03-06 03:39:00,62.2,57.7,29.76,WSW,248,0.0,0.0,85,0.00,,---,0.00,VWS V14.01,2013-03-06 08:39:00,
2013-03-06 03:40:00,61.2,49.7,29.80,West,270,3.1,4.9,66,0.00,,---,0.00,VWS V14.01,2013-03-06 08:40:00,
2013-03-06 03:44:00,62.4,57.9,29.76,West,270,0.0,0.0,85,0.00,,---,0.00,VWS V14.01,2013-03-06 08:44:00,
2013-03-06 03:45:00,61.0,49.6,29.80,NW,315,1.1,4.0,66,0.00,,---,0.00,VWS V14.01,2013-03-06 08:45:00,
2013-03-06 03:49:00,62.6,57.7,29.76,SW,225,0.0,0.0,84,0.00,,---,0.00,VWS V14.01,2013-03-06 08:49:00,
2013-03-06 03:50:00,61.0,49.6,29.80,WNW,292,2.5,3.8,66,0.00,,---,0.00,VWS V14.01,2013-03-06 08:50:00,
2013-03-06 03:54:00,63.0,59.4,29.76,West,270,0.0,3.6,88,0.00,,---,0.00,VWS V14.01,2013-03-06 08:54:00,
2013-03-06 03:55:00,60.8,49.8,29.80,WSW,248,3.6,4.0,67,0.00,,---,0.00,VWS V14.01,2013-03-06 08:55:00,
2013-03-06 04:00:00,63.1,59.8,29.76,West,270,0.0,3.4,89,0.00,,---,0.00,VWS V14.01,2013-03-06 09:00:00,
2013-03-06 04:05:00,63.5,60.8,29.76,WNW,292,1.3,4.9,91,0.00,,---,0.00,VWS V14.01,2013-03-06 09:05:00,
2013-03-06 04:10:00,63.3,59.4,29.76,NNW,338,4.0,5.8,87,0.00,,---,0.00,VWS V14.01,2013-03-06 09:10:00,
2013-03-06 04:15:00,63.0,57.4,29.79,WNW,292,3.6,3.6,82,0.00,,---,0.00,VWS V14.01,2013-03-06 09:15:00,
2013-03-06 04:20:00,62.4,53.3,29.79,WNW,292,2.2,5.6,72,0.00,,---,0.00,VWS V14.01,2013-03-06 09:20:00,
2013-03-06 04:25:00,62.1,51.0,29.79,WNW,292,2.5,3.8,67,0.00,,---,0.00,VWS V14.01,2013-03-06 09:25:00,
2013-03-06 04:30:00,61.7,50.2,29.79,WNW,292,4.0,4.0,66,0.00,,---,0.00,VWS V14.01,2013-03-06 09:30:00,
2013-03-06 04:35:00,61.5,49.7,29.79,West,270,2.9,5.4,65,0.00,,---,0.00,VWS V14.01,2013-03-06 09:35:00,
2013-03-06 04:40:00,61.3,49.9,29.79,WNW,292,4.3,4.7,66,0.00,,---,0.00,VWS V14.01,2013-03-06 09:40:00,
2013-03-06 04:45:00,61.0,49.2,29.79,WSW,248,1.6,4.0,65,0.00,,---,0.00,VWS V14.01,2013-03-06 09:45:00,
2013-03-06 04:50:00,61.0,49.2,29.79,NW,315,0.0,3.8,65,0.00,,---,0.00,VWS V14.01,2013-03-06 09:50:00,
2013-03-06 04:55:00,60.8,49.4,29.79,West,270,4.0,4.0,66,0.00,,---,0.00,VWS V14.01,2013-03-06 09:55:00,
2013-03-06 05:00:00,60.6,50.0,29.79,West,270,0.0,4.3,68,0.00,,---,0.00,VWS V14.01,2013-03-06 10:00:00,
2013-03-06 05:05:00,60.4,49.8,29.79,West,270,0.0,0.0,68,0.00,,---,0.00,VWS V14.01,2013-03-06 10:05:00,
2013-03-06 05:10:00,60.4,50.2,29.79,North,0,3.1,3.1,69,0.00,,---,0.00,VWS V14.01,2013-03-06 10:10:00,
2013-03-06 05:15:00,60.3,50.5,29.82,WSW,248,2.0,3.6,70,0.00,,---,0.00,VWS V14.01,2013-03-06 10:15:00,
2013-03-06 05:20:00,60.1,50.7,29.82,West,270,0.0,4.0,71,0.00,,---,0.00,VWS V14.01,2013-03-06 10:20:00,
2013-03-06 05:25:00,59.7,50.3,29.82,WNW,292,0.0,4.5,71,0.00,,---,0.00,VWS V14.01,2013-03-06 10:25:00,
2013-03-06 05:30:00,59.4,50.3,29.82,West,270,0.0,5.6,72,0.00,,---,0.00,VWS V14.01,2013-03-06 10:30:00,
2013-03-06 05:35:00,59.2,50.5,29.82,WNW,292,0.0,3.4,73,0.00,,---,0.00,VWS V14.01,2013-03-06 10:35:00,
2013-03-06 05:40:00,59.0,50.7,29.82,NNW,338,3.1,3.1,74,0.00,,---,0.00,VWS V14.01,2013-03-06 10:40:00,
2013-03-06 05:45:00,58.8,49.8,29.82,WNW,292,2.5,5.6,72,0.00,,---,0.00,VWS V14.01,2013-03-06 10:45:00,
2013-03-06 05:50:00,58.3,46.2,29.82,NNW,338,3.1,7.4,64,0.00,,---,0.00,VWS V14.01,2013-03-06 10:50:00,
2013-03-06 05:55:00,56.5,36.0,29.82,NW,315,3.8,10.5,46,0.00,,---,0.00,VWS V14.01,2013-03-06 10:55:00,
2013-03-06 06:00:00,55.4,32.1,29.85,NNE,22,2.9,8.7,41,0.00,,---,0.00,VWS V14.01,2013-03-06 11:00:00,
2013-03-06 06:05:00,54.3,30.5,29.85,West,270,5.8,12.1,40,0.00,,---,0.00,VWS V14.01,2013-03-06 11:05:00,
2013-03-06 06:10:00,53.6,29.9,29.85,NNW,338,12.5,12.5,40,0.00,,---,0.00,VWS V14.01,2013-03-06 11:10:00,
2013-03-06 06:15:00,53.2,30.2,29.88,NW,315,7.2,8.5,41,0.00,,---,0.00,VWS V14.01,2013-03-06 11:15:00,
2013-03-06 06:20:00,52.7,30.3,29.88,WNW,292,3.6,7.8,42,0.00,,---,0.00,VWS V14.01,2013-03-06 11:20:00,
2013-03-06 06:25:00,52.0,28.4,29.88,NNW,338,3.1,7.4,40,0.00,,---,0.00,VWS V14.01,2013-03-06 11:25:00,
2013-03-06 06:30:00,51.6,27.5,29.88,NW,315,4.3,7.8,39,0.00,,---,0.00,VWS V14.01,2013-03-06 11:30:00,
2013-03-06 06:35:00,50.9,26.8,29.88,NNW,338,3.1,4.3,39,0.00,,---,0.00,VWS V14.01,2013-03-06 11:35:00,
2013-03-06 06:40:00,50.4,25.7,29.88,WNW,292,5.8,7.6,38,0.00,,---,0.00,VWS V14.01,2013-03-06 11:40:00,
2013-03-06 06:45:00,50.0,25.4,29.88,NNW,338,3.4,6.0,38,0.00,,---,0.00,VWS V14.01,2013-03-06 11:45:00,
2013-03-06 06:50:00,49.3,24.8,29.88,WNW,292,3.8,6.3,38,0.00,,---,0.00,VWS V14.01,2013-03-06 11:50:00,
2013-03-06 06:55:00,48.7,24.3,29.88,NW,315,3.4,4.9,38,0.00,,---,0.00,VWS V14.01,2013-03-06 11:55:00,
2013-03-06 07:00:00,48.4,24.0,29.91,WNW,292,2.2,6.5,38,0.00,,---,0.00,VWS V14.01,2013-03-06 12:00:00,
2013-03-06 07:05:00,48.2,23.8,29.91,NNW,338,2.5,10.3,38,0.00,,---,0.00,VWS V14.01,2013-03-06 12:05:00,
2013-03-06 07:10:00,48.0,23.6,29.91,NNW,338,7.6,7.6,38,0.00,,---,0.00,VWS V14.01,2013-03-06 12:10:00,
2013-03-06 07:15:00,48.2,23.8,29.91,NNE,22,7.4,7.4,38,0.00,,---,0.00,VWS V14.01,2013-03-06 12:15:00,
2013-03-06 07:20:00,48.2,23.8,29.91,North,0,1.6,6.5,38,0.00,,---,0.00,VWS V14.01,2013-03-06 12:20:00,
2013-03-06 07:25:00,48.0,24.3,29.91,NW,315,2.9,6.3,39,0.00,,---,0.00,VWS V14.01,2013-03-06 12:25:00,
2013-03-06 07:30:00,48.6,24.7,29.91,WNW,292,1.6,5.6,39,0.00,,---,0.00,VWS V14.01,2013-03-06 12:30:00,
2013-03-06 07:35:00,49.3,25.4,29.91,WNW,292,4.0,7.2,39,0.00,,---,0.00,VWS V14.01,2013-03-06 12:35:00,
2013-03-06 07:40:00,49.8,25.9,29.91,WNW,292,3.8,3.8,39,0.00,,---,0.00,VWS V14.01,2013-03-06 12:40:00,
2013-03-06 07:45:00,50.2,25.6,29.94,WNW,292,4.7,6.3,38,0.00,,---,0.00,VWS V14.01,2013-03-06 12:45:00,
2013-03-06 07:50:00,50.9,26.8,29.94,NNW,338,1.1,6.3,39,0.00,,---,0.00,VWS V14.01,2013-03-06 12:50:00,
2013-03-06 07:55:00,51.6,26.9,29.94,NW,315,0.0,3.6,38,0.00,,---,0.00,VWS V14.01,2013-03-06 12:55:00,
2013-03-06 08:00:00,52.0,27.2,29.94,West,270,2.0,6.9,38,0.00,,---,0.00,VWS V14.01,2013-03-06 13:00:00,
2013-03-06 08:05:00,52.2,26.7,29.94,NNW,338,5.8,8.5,37,0.00,,---,0.00,VWS V14.01,2013-03-06 13:05:00,
2013-03-06 08:10:00,52.9,27.3,29.94,NNW,338,4.3,5.6,37,0.00,,---,0.00,VWS V14.01,2013-03-06 13:10:00,
2013-03-06 08:15:00,53.1,27.5,29.94,NW,315,4.0,6.3,37,0.00,,---,0.00,VWS V14.01,2013-03-06 13:15:00,
2013-03-06 08:20:00,53.4,27.8,29.94,WNW,292,4.7,6.0,37,0.00,,---,0.00,VWS V14.01,2013-03-06 13:20:00,
2013-03-06 08:25:00,53.1,27.5,29.94,WSW,248,3.1,8.7,37,0.00,,---,0.00,VWS V14.01,2013-03-06 13:25:00,
2013-03-06 08:30:00,54.3,28.0,29.94,NNW,338,6.5,6.9,36,0.00,,---,0.00,VWS V14.01,2013-03-06 13:30:00,
2013-03-06 08:35:00,55.0,28.6,29.94,NNW,338,4.9,8.5,36,0.00,,---,0.00,VWS V14.01,2013-03-06 13:35:00,
2013-03-06 08:40:00,55.2,28.8,29.94,NW,315,2.9,8.1,36,0.00,,---,0.00,VWS V14.01,2013-03-06 13:40:00,
2013-03-06 08:45:00,55.6,28.4,29.94,NW,315,6.5,7.4,35,0.00,,---,0.00,VWS V14.01,2013-03-06 13:45:00,
2013-03-06 08:50:00,55.9,28.7,29.94,NNW,338,6.5,6.5,35,0.00,,---,0.00,VWS V14.01,2013-03-06 13:50:00,
2013-03-06 08:55:00,56.3,29.0,29.94,NNW,338,5.8,7.6,35,0.00,,---,0.00,VWS V14.01,2013-03-06 13:55:00,
2013-03-06 09:00:00,57.2,29.1,29.94,NW,315,6.0,6.5,34,0.00,,---,0.00,VWS V14.01,2013-03-06 14:00:00,
2013-03-06 09:05:00,57.0,27.5,29.94,NNE,22,2.7,9.8,32,0.00,,---,0.00,VWS V14.01,2013-03-06 14:05:00,
2013-03-06 09:10:00,57.9,27.5,29.94,WNW,292,5.4,7.4,31,0.00,,---,0.00,VWS V14.01,2013-03-06 14:10:00,
2013-03-06 09:15:00,58.5,28.0,29.94,North,0,2.7,7.4,31,0.00,,---,0.00,VWS V14.01,2013-03-06 14:15:00,
2013-03-06 09:20:00,58.5,26.3,29.94,West,270,6.0,7.4,29,0.00,,---,0.00,VWS V14.01,2013-03-06 14:20:00,
2013-03-06 09:25:00,59.2,26.1,29.94,WNW,292,2.9,7.2,28,0.00,,---,0.00,VWS V14.01,2013-03-06 14:25:00,
2013-03-06 09:30:00,59.7,25.7,29.94,West,270,3.6,7.6,27,0.00,,---,0.00,VWS V14.01,2013-03-06 14:30:00,
2013-03-06 09:35:00,59.7,24.8,29.94,West,270,3.1,8.5,26,0.00,,---,0.00,VWS V14.01,2013-03-06 14:35:00,
2013-03-06 09:40:00,60.4,25.4,29.94,WNW,292,4.0,6.5,26,0.00,,---,0.00,VWS V14.01,2013-03-06 14:40:00,
2013-03-06 09:45:00,61.3,26.2,29.94,NW,315,2.2,5.4,26,0.00,,---,0.00,VWS V14.01,2013-03-06 14:45:00,
2013-03-06 09:50:00,61.2,25.1,29.94,NW,315,1.1,7.6,25,0.00,,---,0.00,VWS V14.01,2013-03-06 14:50:00,
2013-03-06 09:55:00,61.7,25.5,29.94,NW,315,5.4,7.6,25,0.00,,---,0.00,VWS V14.01,2013-03-06 14:55:00,
2013-03-06 10:00:00,62.1,25.9,29.94,NW,315,4.3,9.2,25,0.00,,---,0.00,VWS V14.01,2013-03-06 15:00:00,
2013-03-06 10:05:00,68.4,25.8,29.91,NNW,338,2.7,6.0,20,0.00,,---,0.00,VWS V14.01,2013-03-06 15:05:00,
2013-03-06 10:06:00,63.5,26.1,29.94,WNW,292,2.2,4.0,24,0.00,,---,0.00,VWS V14.01,2013-03-06 15:06:00,
2013-03-06 10:10:00,69.6,26.8,29.91,NNE,22,3.4,5.6,20,0.00,,---,0.00,VWS V14.01,2013-03-06 15:10:00,
2013-03-06 10:11:00,63.9,26.4,29.94,West,270,3.1,6.5,24,0.00,,---,0.00,VWS V14.01,2013-03-06 15:11:00,
2013-03-06 10:15:00,70.7,26.5,29.91,WNW,292,0.0,4.9,19,0.00,,---,0.00,VWS V14.01,2013-03-06 15:15:00,
2013-03-06 10:16:00,64.8,26.1,29.91,WNW,292,2.9,6.3,23,0.00,,---,0.00,VWS V14.01,2013-03-06 15:16:00,
2013-03-06 10:20:00,71.2,26.9,29.91,WSW,248,3.4,7.2,19,0.00,,---,0.00,VWS V14.01,2013-03-06 15:20:00,
2013-03-06 10:21:00,65.3,26.6,29.91,West,270,2.9,6.0,23,0.00,,---,0.00,VWS V14.01,2013-03-06 15:21:00,
2013-03-06 10:25:00,70.5,26.3,29.91,NNE,22,2.2,5.6,19,0.00,,---,0.00,VWS V14.01,2013-03-06 15:25:00,
2013-03-06 10:26:00,66.4,27.5,29.91,WSW,248,1.3,3.6,23,0.00,,---,0.00,VWS V14.01,2013-03-06 15:26:00,
2013-03-06 10:30:00,69.6,26.8,29.88,SW,225,3.1,6.3,20,0.00,,---,0.00,VWS V14.01,2013-03-06 15:30:00,
2013-03-06 10:31:00,67.5,28.4,29.91,West,270,1.3,5.4,23,0.00,,---,0.00,VWS V14.01,2013-03-06 15:31:00,
2013-03-06 10:35:00,70.7,26.5,29.88,WNW,292,4.9,6.0,19,0.00,,---,0.00,VWS V14.01,2013-03-06 15:35:00,
2013-03-06 10:36:00,67.1,27.0,29.91,WNW,292,4.9,9.0,22,0.00,,---,0.00,VWS V14.01,2013-03-06 15:36:00,
2013-03-06 10:40:00,71.1,26.8,29.88,West,270,1.3,5.4,19,0.00,,---,0.00,VWS V14.01,2013-03-06 15:40:00,
2013-03-06 10:41:00,67.5,25.0,29.91,WSW,248,5.8,5.8,20,0.00,,---,0.00,VWS V14.01,2013-03-06 15:41:00,
2013-03-06 10:45:00,69.6,26.8,29.88,NNW,338,4.3,7.4,20,0.00,,---,0.00,VWS V14.01,2013-03-06 15:45:00,
2013-03-06 10:46:00,66.7,24.4,29.91,West,270,1.3,6.5,20,0.00,,---,0.00,VWS V14.01,2013-03-06 15:46:00,
2013-03-06 10:50:00,69.6,26.8,29.88,West,270,7.2,7.2,20,0.00,,---,0.00,VWS V14.01,2013-03-06 15:50:00,
2013-03-06 10:51:00,68.0,25.5,29.91,WNW,292,5.4,5.4,20,0.00,,---,0.00,VWS V14.01,2013-03-06 15:51:00,
2013-03-06 10:55:00,69.1,26.4,29.88,WNW,292,2.0,8.7,20,0.00,,---,0.00,VWS V14.01,2013-03-06 15:55:00,
2013-03-06 10:56:00,67.6,25.2,29.91,WNW,292,2.9,6.0,20,0.00,,---,0.00,VWS V14.01,2013-03-06 15:56:00,
2013-03-06 11:00:00,71.6,27.2,29.88,West,270,0.0,6.0,19,0.00,,---,0.00,VWS V14.01,2013-03-06 16:00:00,
2013-03-06 11:01:00,67.5,25.0,29.91,WNW,292,3.1,7.2,20,0.00,,---,0.00,VWS V14.01,2013-03-06 16:01:00,
2013-03-06 11:05:00,71.2,26.9,29.88,West,270,6.0,7.4,19,0.00,,---,0.00,VWS V14.01,2013-03-06 16:05:00,
2013-03-06 11:06:00,68.4,25.8,29.91,NNW,338,2.7,6.0,20,0.00,,---,0.00,VWS V14.01,2013-03-06 16:06:00,
2013-03-06 11:10:00,70.7,26.5,29.88,North,0,1.3,6.7,19,0.00,,---,0.00,VWS V14.01,2013-03-06 16:10:00,
2013-03-06 11:11:00,69.6,26.8,29.91,NNE,22,3.4,5.6,20,0.00,,---,0.00,VWS V14.01,2013-03-06 16:11:00,
2013-03-06 11:15:00,70.3,26.2,29.88,West,270,3.1,6.5,19,0.00,,---,0.00,VWS V14.01,2013-03-06 16:15:00,
2013-03-06 11:16:00,70.7,26.5,29.91,WNW,292,0.0,4.9,19,0.00,,---,0.00,VWS V14.01,2013-03-06 16:16:00,
2013-03-06 11:20:00,70.2,26.0,29.88,West,270,9.6,9.6,19,0.00,,---,0.00,VWS V14.01,2013-03-06 16:20:00,
2013-03-06 11:21:00,71.2,26.9,29.91,WSW,248,3.4,7.2,19,0.00,,---,0.00,VWS V14.01,2013-03-06 16:21:00,
2013-03-06 11:25:00,71.2,26.9,29.88,NNW,338,3.8,9.6,19,0.00,,---,0.00,VWS V14.01,2013-03-06 16:25:00,
2013-03-06 11:26:00,70.5,26.3,29.91,NNE,22,2.2,5.6,19,0.00,,---,0.00,VWS V14.01,2013-03-06 16:26:00,
2013-03-06 11:30:00,70.5,26.3,29.88,West,270,2.5,6.3,19,0.00,,---,0.00,VWS V14.01,2013-03-06 16:30:00,
2013-03-06 11:31:00,69.6,26.8,29.88,SW,225,3.1,6.3,20,0.00,,---,0.00,VWS V14.01,2013-03-06 16:31:00,
2013-03-06 11:35:00,71.8,27.3,29.88,WNW,292,2.7,5.4,19,0.00,,---,0.00,VWS V14.01,2013-03-06 16:35:00,
2013-03-06 11:36:00,70.7,26.5,29.88,WNW,292,4.9,6.0,19,0.00,,---,0.00,VWS V14.01,2013-03-06 16:36:00,
2013-03-06 11:40:00,71.2,26.9,29.88,WNW,292,3.4,8.7,19,0.00,,---,0.00,VWS V14.01,2013-03-06 16:40:00,
2013-03-06 11:41:00,71.1,26.8,29.88,West,270,1.3,5.4,19,0.00,,---,0.00,VWS V14.01,2013-03-06 16:41:00,
2013-03-06 11:45:00,71.1,26.8,29.85,West,270,7.4,7.4,19,0.00,,---,0.00,VWS V14.01,2013-03-06 16:45:00,
2013-03-06 11:46:00,69.6,26.8,29.88,NNW,338,4.3,7.4,20,0.00,,---,0.00,VWS V14.01,2013-03-06 16:46:00,
2013-03-06 11:50:00,70.5,26.3,29.85,SW,225,3.4,7.4,19,0.00,,---,0.00,VWS V14.01,2013-03-06 16:50:00,
2013-03-06 11:51:00,69.6,26.8,29.88,West,270,7.2,7.2,20,0.00,,---,0.00,VWS V14.01,2013-03-06 16:51:00,
2013-03-06 11:55:00,70.2,26.0,29.85,SSW,202,3.1,8.7,19,0.00,,---,0.00,VWS V14.01,2013-03-06 16:55:00,
2013-03-06 11:56:00,69.1,26.4,29.88,WNW,292,2.0,8.7,20,0.00,,---,0.00,VWS V14.01,2013-03-06 16:56:00,
2013-03-06 12:00:00,70.5,26.3,29.85,NNW,338,2.0,6.3,19,0.00,,---,0.00,VWS V14.01,2013-03-06 17:00:00,
2013-03-06 12:01:00,71.6,27.2,29.88,West,270,0.0,6.0,19,0.00,,---,0.00,VWS V14.01,2013-03-06 17:01:00,
2013-03-06 12:05:00,72.0,23.4,29.85,West,270,2.0,6.9,16,0.00,,---,0.00,VWS V14.01,2013-03-06 17:05:00,
2013-03-06 12:06:00,71.2,26.9,29.88,West,270,6.0,7.4,19,0.00,,---,0.00,VWS V14.01,2013-03-06 17:06:00,
2013-03-06 12:10:00,72.5,27.9,29.85,NW,315,3.6,6.0,19,0.00,,---,0.00,VWS V14.01,2013-03-06 17:10:00,
2013-03-06 12:11:00,70.7,26.5,29.88,North,0,1.3,6.7,19,0.00,,---,0.00,VWS V14.01,2013-03-06 17:11:00,
2013-03-06 12:15:00,70.7,23.8,29.85,NNW,338,2.5,6.3,17,0.00,,---,0.00,VWS V14.01,2013-03-06 17:15:00,
2013-03-06 12:16:00,70.3,26.2,29.88,West,270,3.1,6.5,19,0.00,,---,0.00,VWS V14.01,2013-03-06 17:16:00,
2013-03-06 12:20:00,70.3,23.5,29.85,WSW,248,3.1,5.6,17,0.00,,---,0.00,VWS V14.01,2013-03-06 17:20:00,
2013-03-06 12:21:00,70.2,26.0,29.88,West,270,9.6,9.6,19,0.00,,---,0.00,VWS V14.01,2013-03-06 17:21:00,
2013-03-06 12:25:00,71.1,24.1,29.85,WNW,292,3.6,6.5,17,0.00,,---,0.00,VWS V14.01,2013-03-06 17:25:00,
2013-03-06 12:26:00,71.2,26.9,29.88,NNW,338,3.8,9.6,19,0.00,,---,0.00,VWS V14.01,2013-03-06 17:26:00,
2013-03-06 12:30:00,69.4,22.8,29.85,NNW,338,3.8,7.6,17,0.00,,---,0.00,VWS V14.01,2013-03-06 17:30:00,
2013-03-06 12:31:00,70.5,26.3,29.88,West,270,2.5,6.3,19,0.00,,---,0.00,VWS V14.01,2013-03-06 17:31:00,
2013-03-06 12:35:00,68.4,21.9,29.85,West,270,2.7,7.6,17,0.00,,---,0.00,VWS V14.01,2013-03-06 17:35:00,
2013-03-06 12:36:00,71.8,27.3,29.88,WNW,292,2.7,5.4,19,0.00,,---,0.00,VWS V14.01,2013-03-06 17:36:00,
2013-03-06 12:40:00,68.4,21.9,29.85,WNW,292,2.0,5.8,17,0.00,,---,0.00,VWS V14.01,2013-03-06 17:40:00,
2013-03-06 12:41:00,71.2,26.9,29.88,WNW,292,3.4,8.7,19,0.00,,---,0.00,VWS V14.01,2013-03-06 17:41:00,
2013-03-06 12:45:00,68.7,26.1,29.82,West,270,0.0,6.5,20,0.00,,---,0.00,VWS V14.01,2013-03-06 17:45:00,
2013-03-06 12:46:00,71.1,26.8,29.85,West,270,7.4,7.4,19,0.00,,---,0.00,VWS V14.01,2013-03-06 17:46:00,
2013-03-06 12:50:00,68.0,21.6,29.82,WSW,248,4.9,6.3,17,0.00,,---,0.00,VWS V14.01,2013-03-06 17:50:00,
2013-03-06 12:51:00,70.5,26.3,29.85,SW,225,3.4,7.4,19,0.00,,---,0.00,VWS V14.01,2013-03-06 17:51:00,
2013-03-06 12:55:00,66.0,21.3,29.82,SW,225,5.8,8.1,18,0.00,,---,0.00,VWS V14.01,2013-03-06 17:55:00,
2013-03-06 12:56:00,70.2,26.0,29.85,SSW,202,3.1,8.7,19,0.00,,---,0.00,VWS V14.01,2013-03-06 17:56:00,
2013-03-06 13:00:00,65.7,23.5,29.82,WSW,248,5.8,6.5,20,0.00,,---,0.00,VWS V14.01,2013-03-06 18:00:00,
2013-03-06 13:01:00,70.5,26.3,29.85,NNW,338,2.0,6.3,19,0.00,,---,0.00,VWS V14.01,2013-03-06 18:01:00,
2013-03-06 13:05:00,65.5,23.4,29.82,WSW,248,3.1,6.3,20,0.00,,---,0.00,VWS V14.01,2013-03-06 18:05:00,
2013-03-06 13:06:00,72.0,23.4,29.85,West,270,2.0,6.9,16,0.00,,---,0.00,VWS V14.01,2013-03-06 18:06:00,
2013-03-06 13:10:00,64.8,22.8,29.82,WNW,292,4.3,7.6,20,0.00,,---,0.00,VWS V14.01,2013-03-06 18:10:00,
2013-03-06 13:11:00,72.5,27.9,29.85,NW,315,3.6,6.0,19,0.00,,---,0.00,VWS V14.01,2013-03-06 18:11:00,
2013-03-06 13:15:00,64.4,22.5,29.82,WNW,292,5.8,5.8,20,0.00,,---,0.00,VWS V14.01,2013-03-06 18:15:00,
2013-03-06 13:16:00,70.7,23.8,29.85,NNW,338,2.5,6.3,17,0.00,,---,0.00,VWS V14.01,2013-03-06 18:16:00,
2013-03-06 13:20:00,64.2,23.5,29.82,WSW,248,1.3,5.8,21,0.00,,---,0.00,VWS V14.01,2013-03-06 18:20:00,
2013-03-06 13:21:00,70.3,23.5,29.85,WSW,248,3.1,5.6,17,0.00,,---,0.00,VWS V14.01,2013-03-06 18:21:00,
2013-03-06 13:25:00,63.7,23.0,29.82,ESE,112,3.1,6.9,21,0.00,,---,0.00,VWS V14.01,2013-03-06 18:25:00,
2013-03-06 13:26:00,71.1,24.1,29.85,WNW,292,3.6,6.5,17,0.00,,---,0.00,VWS V14.01,2013-03-06 18:26:00,
2013-03-06 13:30:00,64.0,25.5,29.82,WNW,292,2.7,5.4,23,0.00,,---,0.00,VWS V14.01,2013-03-06 18:30:00,
2013-03-06 13:31:00,69.4,22.8,29.85,NNW,338,3.8,7.6,17,0.00,,---,0.00,VWS V14.01,2013-03-06 18:31:00,
2013-03-06 13:35:00,63.9,25.4,29.82,NW,315,2.5,5.6,23,0.00,,---,0.00,VWS V14.01,2013-03-06 18:35:00,
2013-03-06 13:36:00,68.4,21.9,29.85,West,270,2.7,7.6,17,0.00,,---,0.00,VWS V14.01,2013-03-06 18:36:00,
2013-03-06 13:40:00,63.3,24.9,29.82,West,270,0.0,6.3,23,0.00,,---,0.00,VWS V14.01,2013-03-06 18:40:00,
2013-03-06 13:41:00,68.4,21.9,29.85,WNW,292,2.0,5.8,17,0.00,,---,0.00,VWS V14.01,2013-03-06 18:41:00,
2013-03-06 13:45:00,63.7,25.2,29.82,South,180,3.8,7.4,23,0.00,,---,0.00,VWS V14.01,2013-03-06 18:45:00,
2013-03-06 13:46:00,68.7,26.1,29.82,West,270,0.0,6.5,20,0.00,,---,0.00,VWS V14.01,2013-03-06 18:46:00,
2013-03-06 13:50:00,63.5,25.1,29.82,South,180,2.2,7.4,23,0.00,,---,0.00,VWS V14.01,2013-03-06 18:50:00,
2013-03-06 13:51:00,68.0,21.6,29.82,WSW,248,4.9,6.3,17,0.00,,---,0.00,VWS V14.01,2013-03-06 18:51:00,
2013-03-06 13:55:00,63.1,24.8,29.82,WNW,292,0.0,6.5,23,0.00,,---,0.00,VWS V14.01,2013-03-06 18:55:00,
2013-03-06 13:56:00,66.0,21.3,29.82,SW,225,5.8,8.1,18,0.00,,---,0.00,VWS V14.01,2013-03-06 18:56:00,
2013-03-06 14:00:00,63.1,24.8,29.82,WSW,248,6.3,6.5,23,0.00,,---,0.00,VWS V14.01,2013-03-06 19:00:00,
2013-03-06 14:01:00,65.7,23.5,29.82,WSW,248,5.8,6.5,20,0.00,,---,0.00,VWS V14.01,2013-03-06 19:01:00,
2013-03-06 14:05:00,63.0,24.6,29.82,WNW,292,3.4,8.5,23,0.00,,---,0.00,VWS V14.01,2013-03-06 19:05:00,
2013-03-06 14:06:00,65.5,23.4,29.82,NW,315,7.6,7.6,20,0.00,,---,0.00,VWS V14.01,2013-03-06 19:06:00,
2013-03-06 14:10:00,63.7,25.2,29.82,SE,135,3.4,7.6,23,0.00,,---,0.00,VWS V14.01,2013-03-06 19:10:00,
2013-03-06 14:11:00,64.8,22.8,29.82,West,270,3.4,4.3,20,0.00,,---,0.00,VWS V14.01,2013-03-06 19:11:00,
2013-03-06 14:15:00,63.9,25.4,29.82,WNW,292,1.1,4.3,23,0.00,,---,0.00,VWS V14.01,2013-03-06 19:15:00,
2013-03-06 14:16:00,64.2,23.5,29.82,NW,315,2.0,5.8,21,0.00,,---,0.00,VWS V14.01,2013-03-06 19:16:00,
2013-03-06 14:20:00,63.7,25.2,29.82,WNW,292,3.1,5.4,23,0.00,,---,0.00,VWS V14.01,2013-03-06 19:20:00,
2013-03-06 14:21:00,64.2,23.5,29.82,NNE,22,3.4,3.4,21,0.00,,---,0.00,VWS V14.01,2013-03-06 19:21:00,
2013-03-06 14:25:00,63.7,25.2,29.82,WNW,292,6.5,7.6,23,0.00,,---,0.00,VWS V14.01,2013-03-06 19:25:00,
2013-03-06 14:26:00,63.7,23.0,29.82,NNE,22,2.9,3.1,21,0.00,,---,0.00,VWS V14.01,2013-03-06 19:26:00,
2013-03-06 14:30:00,63.1,22.6,29.82,WSW,248,3.8,9.4,21,0.00,,---,0.00,VWS V14.01,2013-03-06 19:30:00,
2013-03-06 14:31:00,64.0,25.5,29.82,West,270,2.5,2.9,23,0.00,,---,0.00,VWS V14.01,2013-03-06 19:31:00,
2013-03-06 14:35:00,62.6,22.1,29.82,WNW,292,2.9,6.3,21,0.00,,---,0.00,VWS V14.01,2013-03-06 19:35:00,
2013-03-06 14:36:00,63.9,25.4,29.82,North,0,2.9,3.8,23,0.00,,---,0.00,VWS V14.01,2013-03-06 19:36:00,
2013-03-06 14:40:00,62.8,24.5,29.82,WNW,292,2.0,5.4,23,0.00,,---,0.00,VWS V14.01,2013-03-06 19:40:00,
2013-03-06 14:41:00,63.3,24.9,29.82,WNW,292,0.0,0.0,23,0.00,,---,0.00,VWS V14.01,2013-03-06 19:41:00,
2013-03-06 14:45:00,62.6,22.1,29.82,NNE,22,2.7,6.5,21,0.00,,---,0.00,VWS V14.01,2013-03-06 19:45:00,
2013-03-06 14:46:00,63.7,25.2,29.82,SW,225,0.0,3.8,23,0.00,,---,0.00,VWS V14.01,2013-03-06 19:46:00,
2013-03-06 14:50:00,62.4,25.2,29.82,West,270,3.1,6.0,24,0.00,,---,0.00,VWS V14.01,2013-03-06 19:50:00,
2013-03-06 14:51:00,63.5,25.1,29.82,West,270,1.3,2.2,23,0.00,,---,0.00,VWS V14.01,2013-03-06 19:51:00,
2013-03-06 14:55:00,62.1,24.9,29.82,NW,315,3.6,8.1,24,0.00,,---,0.00,VWS V14.01,2013-03-06 19:55:00,
2013-03-06 14:56:00,63.3,24.9,29.82,WSW,248,3.4,3.4,23,0.00,,---,0.00,VWS V14.01,2013-03-06 19:56:00,
2013-03-06 15:00:00,62.1,24.9,29.82,NW,315,3.6,5.6,24,0.00,,---,0.00,VWS V14.01,2013-03-06 20:00:00,
2013-03-06 15:01:00,63.0,24.6,29.82,West,270,3.8,6.3,23,0.00,,---,0.00,VWS V14.01,2013-03-06 20:01:00,
2013-03-06 15:05:00,61.7,24.6,29.82,WNW,292,3.4,4.9,24,0.00,,---,0.00,VWS V14.01,2013-03-06 20:05:00,
2013-03-06 15:06:00,63.0,24.6,29.82,West,270,2.0,3.4,23,0.00,,---,0.00,VWS V14.01,2013-03-06 20:06:00,
2013-03-06 15:10:00,61.2,24.1,29.82,NW,315,3.1,5.8,24,0.00,,---,0.00,VWS V14.01,2013-03-06 20:10:00,
2013-03-06 15:11:00,63.5,25.1,29.82,NE,45,3.4,3.4,23,0.00,,---,0.00,VWS V14.01,2013-03-06 20:11:00,
2013-03-06 15:15:00,60.3,23.4,29.82,NW,315,5.8,8.7,24,0.00,,---,0.00,VWS V14.01,2013-03-06 20:15:00,
2013-03-06 15:16:00,63.9,25.4,29.82,NW,315,3.4,4.5,23,0.00,,---,0.00,VWS V14.01,2013-03-06 20:16:00,
2013-03-06 15:20:00,59.9,23.0,29.82,NW,315,5.6,8.5,24,0.00,,---,0.00,VWS V14.01,2013-03-06 20:20:00,
2013-03-06 15:21:00,63.7,25.2,29.82,WSW,248,2.0,4.7,23,0.00,,---,0.00,VWS V14.01,2013-03-06 20:21:00,
2013-03-06 15:25:00,59.5,22.7,29.82,SSW,202,2.0,5.6,24,0.00,,---,0.00,VWS V14.01,2013-03-06 20:25:00,
2013-03-06 15:26:00,63.7,23.0,29.82,West,270,3.4,6.5,21,0.00,,---,0.00,VWS V14.01,2013-03-06 20:26:00,
2013-03-06 15:30:00,59.4,22.6,29.82,WSW,248,6.5,6.5,24,0.00,,---,0.00,VWS V14.01,2013-03-06 20:30:00,
2013-03-06 15:31:00,63.1,22.6,29.82,West,270,3.8,4.3,21,0.00,,---,0.00,VWS V14.01,2013-03-06 20:31:00,
2013-03-06 15:35:00,59.0,23.2,29.82,North,0,2.9,6.5,25,0.00,,---,0.00,VWS V14.01,2013-03-06 20:35:00,
2013-03-06 15:37:00,62.6,22.1,29.82,WNW,292,4.3,4.5,21,0.00,,---,0.00,VWS V14.01,2013-03-06 20:37:00,
2013-03-06 15:40:00,58.5,22.8,29.82,West,270,3.4,11.0,25,0.00,,---,0.00,VWS V14.01,2013-03-06 20:40:00,
2013-03-06 15:42:00,63.0,24.6,29.82,NW,315,4.3,4.3,23,0.00,,---,0.00,VWS V14.01,2013-03-06 20:42:00,
2013-03-06 15:45:00,58.3,22.6,29.85,WNW,292,4.3,6.3,25,0.00,,---,0.00,VWS V14.01,2013-03-06 20:45:00,
2013-03-06 15:47:00,62.6,22.1,29.82,WNW,292,1.1,2.7,21,0.00,,---,0.00,VWS V14.01,2013-03-06 20:47:00,
2013-03-06 15:50:00,57.9,22.3,29.85,WSW,248,1.6,4.7,25,0.00,,---,0.00,VWS V14.01,2013-03-06 20:50:00,
2013-03-06 15:52:00,62.4,25.2,29.82,North,0,3.8,3.8,24,0.00,,---,0.00,VWS V14.01,2013-03-06 20:52:00,
2013-03-06 15:55:00,57.6,22.0,29.85,West,270,2.0,4.7,25,0.00,,---,0.00,VWS V14.01,2013-03-06 20:55:00,
2013-03-06 15:57:00,62.1,24.9,29.82,West,270,1.3,3.6,24,0.00,,---,0.00,VWS V14.01,2013-03-06 20:57:00,
2013-03-06 16:00:00,57.2,21.7,29.85,WSW,248,2.9,5.6,25,0.00,,---,0.00,VWS V14.01,2013-03-06 21:00:00,
2013-03-06 16:02:00,62.1,24.9,29.82,NNW,338,2.5,3.6,24,0.00,,---,0.00,VWS V14.01,2013-03-06 21:02:00,
2013-03-06 16:05:00,57.2,22.6,29.85,NNE,22,3.4,5.8,26,0.00,,---,0.00,VWS V14.01,2013-03-06 21:05:00,
2013-03-06 16:07:00,61.3,24.3,29.82,West,270,4.0,4.3,24,0.00,,---,0.00,VWS V14.01,2013-03-06 21:07:00,
2013-03-06 16:10:00,56.8,22.3,29.85,WNW,292,1.6,6.5,26,0.00,,---,0.00,VWS V14.01,2013-03-06 21:10:00,
2013-03-06 16:12:00,61.0,24.0,29.82,NW,315,3.8,3.8,24,0.00,,---,0.00,VWS V14.01,2013-03-06 21:12:00,
2013-03-06 16:15:00,56.7,22.2,29.85,WSW,248,2.0,5.4,26,0.00,,---,0.00,VWS V14.01,2013-03-06 21:15:00,
2013-03-06 16:17:00,60.1,23.2,29.82,West,270,2.7,5.8,24,0.00,,---,0.00,VWS V14.01,2013-03-06 21:17:00,
2013-03-06 16:20:00,56.7,22.2,29.85,NW,315,1.1,5.4,26,0.00,,---,0.00,VWS V14.01,2013-03-06 21:20:00,
2013-03-06 16:22:00,59.7,22.9,29.82,WNW,292,3.1,5.6,24,0.00,,---,0.00,VWS V14.01,2013-03-06 21:22:00,
2013-03-06 16:25:00,56.3,21.9,29.85,NNW,338,2.7,9.6,26,0.00,,---,0.00,VWS V14.01,2013-03-06 21:25:00,
2013-03-06 16:27:00,59.5,22.7,29.82,SSW,202,3.6,4.9,24,0.00,,---,0.00,VWS V14.01,2013-03-06 21:27:00,
2013-03-06 16:30:00,56.1,21.7,29.85,West,270,3.6,5.8,26,0.00,,---,0.00,VWS V14.01,2013-03-06 21:30:00,
2013-03-06 16:32:00,59.4,22.6,29.82,West,270,1.3,6.5,24,0.00,,---,0.00,VWS V14.01,2013-03-06 21:32:00,
2013-03-06 16:35:00,55.9,21.6,29.85,NW,315,0.0,3.8,26,0.00,,---,0.00,VWS V14.01,2013-03-06 21:35:00,
2013-03-06 16:37:00,58.8,23.1,29.82,WSW,248,4.3,7.2,25,0.00,,---,0.00,VWS V14.01,2013-03-06 21:37:00,
2013-03-06 16:40:00,55.8,22.3,29.85,NNW,338,3.4,6.5,27,0.00,,---,0.00,VWS V14.01,2013-03-06 21:40:00,
2013-03-06 16:42:00,58.5,22.8,29.85,WSW,248,1.6,3.4,25,0.00,,---,0.00,VWS V14.01,2013-03-06 21:42:00,
2013-03-06 16:45:00,55.4,22.0,29.85,WSW,248,5.6,5.6,27,0.00,,---,0.00,VWS V14.01,2013-03-06 21:45:00,
2013-03-06 16:47:00,58.3,22.6,29.85,North,0,3.4,4.3,25,0.00,,---,0.00,VWS V14.01,2013-03-06 21:47:00,
2013-03-06 16:50:00,55.0,21.7,29.85,WNW,292,1.3,5.6,27,0.00,,---,0.00,VWS V14.01,2013-03-06 21:50:00,
2013-03-06 16:52:00,57.7,22.2,29.85,North,0,3.1,3.4,25,0.00,,---,0.00,VWS V14.01,2013-03-06 21:52:00,
2013-03-06 16:55:00,54.7,22.2,29.85,West,270,3.1,5.8,28,0.00,,---,0.00,VWS V14.01,2013-03-06 21:55:00,
2013-03-06 16:57:00,57.6,22.0,29.85,West,270,2.9,2.9,25,0.00,,---,0.00,VWS V14.01,2013-03-06 21:57:00,
2013-03-06 17:00:00,54.3,21.9,29.85,NW,315,1.3,4.9,28,0.00,,---,0.00,VWS V14.01,2013-03-06 22:00:00,
2013-03-06 17:02:00,57.2,21.7,29.85,West,270,1.1,3.6,25,0.00,,---,0.00,VWS V14.01,2013-03-06 22:02:00,
2013-03-06 17:05:00,54.0,21.6,29.85,West,270,2.9,5.8,28,0.00,,---,0.00,VWS V14.01,2013-03-06 22:05:00,
2013-03-06 17:07:00,57.0,22.5,29.85,West,270,2.9,3.8,26,0.00,,---,0.00,VWS V14.01,2013-03-06 22:07:00,
2013-03-06 17:10:00,53.6,22.1,29.85,West,270,3.8,4.9,29,0.00,,---,0.00,VWS V14.01,2013-03-06 22:10:00,
2013-03-06 17:12:00,56.8,22.3,29.85,NNW,338,2.7,3.1,26,0.00,,---,0.00,VWS V14.01,2013-03-06 22:12:00,
2013-03-06 17:15:00,53.2,21.8,29.85,WNW,292,3.4,6.3,29,0.00,,---,0.00,VWS V14.01,2013-03-06 22:15:00,
2013-03-06 17:17:00,56.7,22.2,29.85,West,270,0.9,4.7,26,0.00,,---,0.00,VWS V14.01,2013-03-06 22:17:00,
2013-03-06 17:20:00,53.1,22.5,29.85,NW,315,1.1,4.9,30,0.00,,---,0.00,VWS V14.01,2013-03-06 22:20:00,
2013-03-06 17:22:00,56.5,22.0,29.85,NNE,22,3.6,3.6,26,0.00,,---,0.00,VWS V14.01,2013-03-06 22:22:00,
2013-03-06 17:25:00,52.9,22.3,29.85,West,270,2.0,7.6,30,0.00,,---,0.00,VWS V14.01,2013-03-06 22:25:00,
2013-03-06 17:27:00,56.3,21.9,29.85,West,270,0.0,3.1,26,0.00,,---,0.00,VWS V14.01,2013-03-06 22:27:00,
2013-03-06 17:30:00,52.3,21.8,29.88,NNW,338,2.5,7.2,30,0.00,,---,0.00,VWS V14.01,2013-03-06 22:30:00,
2013-03-06 17:32:00,56.1,21.7,29.85,North,0,3.4,3.6,26,0.00,,---,0.00,VWS V14.01,2013-03-06 22:32:00,
2013-03-06 17:35:00,52.3,22.6,29.88,WSW,248,3.1,6.3,31,0.00,,---,0.00,VWS V14.01,2013-03-06 22:35:00,
2013-03-06 17:37:00,55.8,22.3,29.85,NNW,338,1.3,1.3,27,0.00,,---,0.00,VWS V14.01,2013-03-06 22:37:00,
2013-03-06 17:40:00,52.0,22.3,29.88,West,270,2.9,4.5,31,0.00,,---,0.00,VWS V14.01,2013-03-06 22:40:00,
2013-03-06 17:42:00,55.6,22.1,29.85,NNW,338,2.7,3.4,27,0.00,,---,0.00,VWS V14.01,2013-03-06 22:42:00,
2013-03-06 17:45:00,51.8,22.1,29.88,WNW,292,0.0,3.4,31,0.00,,---,0.00,VWS V14.01,2013-03-06 22:45:00,
2013-03-06 17:47:00,55.4,22.0,29.85,WNW,292,0.0,5.6,27,0.00,,---,0.00,VWS V14.01,2013-03-06 22:47:00,
2013-03-06 17:50:00,51.4,22.6,29.88,WNW,292,0.0,3.4,32,0.00,,---,0.00,VWS V14.01,2013-03-06 22:50:00,
2013-03-06 17:52:00,54.9,21.5,29.85,West,270,5.4,5.8,27,0.00,,---,0.00,VWS V14.01,2013-03-06 22:52:00,
2013-03-06 17:55:00,51.3,23.2,29.88,WNW,292,0.0,3.8,33,0.00,,---,0.00,VWS V14.01,2013-03-06 22:55:00,
2013-03-06 17:57:00,54.7,22.2,29.85,WSW,248,1.3,4.9,28,0.00,,---,0.00,VWS V14.01,2013-03-06 22:57:00,
2013-03-06 18:00:00,51.4,23.3,29.88,WSW,248,1.6,3.6,33,0.00,,---,0.00,VWS V14.01,2013-03-06 23:00:00,
2013-03-06 18:02:00,54.3,21.9,29.85,WSW,248,0.0,3.6,28,0.00,,---,0.00,VWS V14.01,2013-03-06 23:02:00,
2013-03-06 18:05:00,51.3,23.9,29.88,West,270,1.3,3.4,34,0.00,,---,0.00,VWS V14.01,2013-03-06 23:05:00,
2013-03-06 18:07:00,54.0,21.6,29.85,West,270,4.9,4.9,28,0.00,,---,0.00,VWS V14.01,2013-03-06 23:07:00,
2013-03-06 18:10:00,50.7,23.4,29.88,WSW,248,0.0,2.5,34,0.00,,---,0.00,VWS V14.01,2013-03-06 23:10:00,
2013-03-06 18:12:00,53.6,22.1,29.85,NNW,338,3.4,6.3,29,0.00,,---,0.00,VWS V14.01,2013-03-06 23:12:00,
2013-03-06 18:15:00,50.7,24.1,29.88,West,270,2.9,3.8,35,0.00,,---,0.00,VWS V14.01,2013-03-06 23:15:00,
2013-03-06 18:17:00,53.2,21.8,29.85,WNW,292,2.9,3.4,29,0.00,,---,0.00,VWS V14.01,2013-03-06 23:17:00,
2013-03-06 18:20:00,50.4,23.8,29.88,West,270,2.2,2.9,35,0.00,,---,0.00,VWS V14.01,2013-03-06 23:20:00,
2013-03-06 18:22:00,53.1,22.5,29.85,NNW,338,2.7,2.7,30,0.00,,---,0.00,VWS V14.01,2013-03-06 23:22:00,
2013-03-06 18:25:00,50.2,24.3,29.88,WNW,292,1.6,2.2,36,0.00,,---,0.00,VWS V14.01,2013-03-06 23:25:00,
2013-03-06 18:27:00,52.9,22.3,29.88,ENE,68,0.0,7.2,30,0.00,,---,0.00,VWS V14.01,2013-03-06 23:27:00,
2013-03-06 18:30:00,50.2,24.3,29.91,West,270,1.1,3.6,36,0.00,,---,0.00,VWS V14.01,2013-03-06 23:30:00,
2013-03-06 18:32:00,52.3,21.8,29.88,WNW,292,5.4,6.3,30,0.00,,---,0.00,VWS V14.01,2013-03-06 23:32:00,
2013-03-06 18:35:00,49.8,24.6,29.91,West,270,0.0,4.3,37,0.00,,---,0.00,VWS V14.01,2013-03-06 23:35:00,
2013-03-06 18:37:00,52.3,22.6,29.88,West,270,0.0,3.4,31,0.00,,---,0.00,VWS V14.01,2013-03-06 23:37:00,
2013-03-06 18:40:00,49.6,24.5,29.91,West,270,0.0,0.0,37,0.00,,---,0.00,VWS V14.01,2013-03-06 23:40:00,
2013-03-06 18:42:00,52.0,22.3,29.88,WNW,292,3.1,3.4,31,0.00,,---,0.00,VWS V14.01,2013-03-06 23:42:00,
2013-03-06 18:45:00,49.1,24.0,29.91,West,270,0.0,1.3,37,0.00,,---,0.00,VWS V14.01,2013-03-06 23:45:00,
2013-03-06 18:47:00,51.8,22.1,29.88,West,270,2.5,2.5,31,0.00,,---,0.00,VWS V14.01,2013-03-06 23:47:00,
2013-03-06 18:50:00,49.1,24.0,29.91,West,270,0.0,2.9,37,0.00,,---,0.00,VWS V14.01,2013-03-06 23:50:00,
2013-03-06 18:52:00,51.3,22.4,29.88,West,270,2.0,2.0,32,0.00,,---,0.00,VWS V14.01,2013-03-06 23:52:00,
2013-03-06 18:55:00,49.1,24.0,29.91,WNW,292,2.9,2.9,37,0.00,,---,0.00,VWS V14.01,2013-03-06 23:55:00,
2013-03-06 18:57:00,51.4,23.3,29.88,WNW,292,0.0,2.9,33,0.00,,---,0.00,VWS V14.01,2013-03-06 23:57:00,
2013-03-06 19:00:00,48.7,23.6,29.91,West,270,0.0,2.9,37,0.00,,---,0.00,VWS V14.01,2013-03-07 00:00:00,
2013-03-06 19:02:00,51.3,23.2,29.88,WSW,248,1.1,1.6,33,0.00,,---,0.00,VWS V14.01,2013-03-07 00:02:00,
2013-03-06 19:05:00,48.7,23.6,29.91,WNW,292,1.3,1.6,37,0.00,,---,0.00,VWS V14.01,2013-03-07 00:05:00,
2013-03-06 19:07:00,51.1,23.7,29.88,WSW,248,0.0,2.2,34,0.00,,---,0.00,VWS V14.01,2013-03-07 00:07:00,
2013-03-06 19:10:00,48.9,23.8,29.91,NW,315,0.0,3.4,37,0.00,,---,0.00,VWS V14.01,2013-03-07 00:10:00,
2013-03-06 19:12:00,50.5,23.2,29.88,West,270,3.1,3.1,34,0.00,,---,0.00,VWS V14.01,2013-03-07 00:12:00,
2013-03-06 19:15:00,48.7,23.6,29.91,WNW,292,0.0,2.0,37,0.00,,---,0.00,VWS V14.01,2013-03-07 00:15:00,
2013-03-06 19:17:00,50.7,24.1,29.88,WNW,292,0.0,2.9,35,0.00,,---,0.00,VWS V14.01,2013-03-07 00:17:00,
2013-03-06 19:20:00,48.6,23.5,29.91,NW,315,0.0,1.3,37,0.00,,---,0.00,VWS V14.01,2013-03-07 00:20:00,
2013-03-06 19:22:00,50.2,23.6,29.88,WSW,248,0.0,2.2,35,0.00,,---,0.00,VWS V14.01,2013-03-07 00:22:00,
2013-03-06 19:25:00,48.2,23.2,29.91,NW,315,0.0,0.9,37,0.00,,---,0.00,VWS V14.01,2013-03-07 00:25:00,
2013-03-06 19:27:00,50.0,23.4,29.91,WSW,248,0.0,1.6,35,0.00,,---,0.00,VWS V14.01,2013-03-07 00:27:00,
2013-03-06 19:30:00,47.8,23.5,29.91,West,270,0.0,0.0,38,0.00,,---,0.00,VWS V14.01,2013-03-07 00:30:00,
2013-03-06 19:32:00,50.0,24.1,29.91,WSW,248,0.0,1.1,36,0.00,,---,0.00,VWS V14.01,2013-03-07 00:32:00,
2013-03-06 19:35:00,47.8,23.5,29.91,WSW,248,1.3,1.3,38,0.00,,---,0.00,VWS V14.01,2013-03-07 00:35:00,
2013-03-06 19:37:00,49.6,23.8,29.91,WNW,292,0.0,0.0,36,0.00,,---,0.00,VWS V14.01,2013-03-07 00:37:00,
2013-03-06 19:40:00,47.7,23.3,29.91,West,270,0.0,1.3,38,0.00,,---,0.00,VWS V14.01,2013-03-07 00:40:00,
2013-03-06 19:42:00,49.5,24.3,29.91,West,270,0.0,0.0,37,0.00,,---,0.00,VWS V14.01,2013-03-07 00:42:00,
2013-03-06 19:45:00,47.3,23.0,29.91,WSW,248,0.0,0.0,38,0.00,,---,0.00,VWS V14.01,2013-03-07 00:45:00,
2013-03-06 19:47:00,49.1,24.0,29.91,West,270,1.3,1.3,37,0.00,,---,0.00,VWS V14.01,2013-03-07 00:47:00,
2013-03-06 19:50:00,47.3,23.0,29.91,WNW,292,1.1,2.2,38,0.00,,---,0.00,VWS V14.01,2013-03-07 00:50:00,
2013-03-06 19:52:00,49.1,24.0,29.91,West,270,0.0,1.3,37,0.00,,---,0.00,VWS V14.01,2013-03-07 00:52:00,
2013-03-06 19:55:00,47.3,23.0,29.91,WNW,292,0.0,1.1,38,0.00,,---,0.00,VWS V14.01,2013-03-07 00:55:00,
2013-03-06 19:57:00,48.9,23.8,29.91,WNW,292,0.0,2.9,37,0.00,,---,0.00,VWS V14.01,2013-03-07 00:57:00,
2013-03-06 20:00:00,47.5,23.8,29.94,WNW,292,0.0,0.0,39,0.00,,---,0.00,VWS V14.01,2013-03-07 01:00:00,
2013-03-06 20:02:00,48.7,23.6,29.91,North,0,0.0,1.6,37,0.00,,---,0.00,VWS V14.01,2013-03-07 01:02:00,
2013-03-06 20:05:00,47.5,23.8,29.94,West,270,0.0,0.0,39,0.00,,---,0.00,VWS V14.01,2013-03-07 01:05:00,
2013-03-06 20:07:00,48.7,23.6,29.91,WSW,248,0.0,1.3,37,0.00,,---,0.00,VWS V14.01,2013-03-07 01:07:00,
2013-03-06 20:10:00,47.3,23.6,29.94,NW,315,0.0,0.0,39,0.00,,---,0.00,VWS V14.01,2013-03-07 01:10:00,
2013-03-06 20:12:00,48.7,23.6,29.91,WNW,292,0.0,0.0,37,0.00,,---,0.00,VWS V14.01,2013-03-07 01:12:00,
2013-03-06 20:15:00,47.5,23.8,29.94,WNW,292,0.0,3.4,39,0.00,,---,0.00,VWS V14.01,2013-03-07 01:15:00,
2013-03-06 20:17:00,48.7,23.6,29.91,NW,315,0.0,0.0,37,0.00,,---,0.00,VWS V14.01,2013-03-07 01:17:00,
2013-03-06 20:20:00,47.5,23.8,29.94,West,270,0.0,0.0,39,0.00,,---,0.00,VWS V14.01,2013-03-07 01:20:00,
2013-03-06 20:22:00,48.4,23.3,29.91,WNW,292,0.0,0.9,37,0.00,,---,0.00,VWS V14.01,2013-03-07 01:22:00,
2013-03-06 20:25:00,47.7,24.5,29.94,NW,315,0.0,1.6,40,0.00,,---,0.00,VWS V14.01,2013-03-07 01:25:00,
2013-03-06 20:27:00,48.0,23.6,29.91,WNW,292,0.0,0.0,38,0.00,,---,0.00,VWS V14.01,2013-03-07 01:27:00,
2013-03-06 20:30:00,47.8,24.7,29.94,WNW,292,1.1,2.0,40,0.00,,---,0.00,VWS V14.01,2013-03-07 01:30:00,
2013-03-06 20:32:00,48.0,23.6,29.91,West,270,0.0,0.9,38,0.00,,---,0.00,VWS V14.01,2013-03-07 01:32:00,
2013-03-06 20:35:00,48.0,24.9,29.94,NW,315,0.0,1.1,40,0.00,,---,0.00,VWS V14.01,2013-03-07 01:35:00,
2013-03-06 20:37:00,47.7,23.3,29.91,West,270,0.0,1.3,38,0.00,,---,0.00,VWS V14.01,2013-03-07 01:37:00,
2013-03-06 20:40:00,47.8,24.7,29.94,NW,315,0.0,1.6,40,0.00,,---,0.00,VWS V14.01,2013-03-07 01:40:00,
2013-03-06 20:42:00,47.7,23.3,29.91,WSW,248,0.0,0.0,38,0.00,,---,0.00,VWS V14.01,2013-03-07 01:42:00,
2013-03-06 20:45:00,47.7,24.5,29.94,WNW,292,0.0,0.0,40,0.00,,---,0.00,VWS V14.01,2013-03-07 01:45:00,
2013-03-06 20:47:00,47.1,22.8,29.91,WNW,292,0.0,0.0,38,0.00,,---,0.00,VWS V14.01,2013-03-07 01:47:00,
2013-03-06 20:50:00,47.3,24.2,29.94,NNW,338,0.0,0.0,40,0.00,,---,0.00,VWS V14.01,2013-03-07 01:50:00,
2013-03-06 20:53:00,47.5,23.2,29.91,West,270,0.0,1.1,38,0.00,,---,0.00,VWS V14.01,2013-03-07 01:53:00,
2013-03-06 20:55:00,47.1,24.1,29.94,WNW,292,0.0,0.0,40,0.00,,---,0.00,VWS V14.01,2013-03-07 01:55:00,
2013-03-06 20:58:00,47.3,23.6,29.94,WNW,292,0.0,0.0,39,0.00,,---,0.00,VWS V14.01,2013-03-07 01:58:00,
2013-03-06 21:00:00,46.9,23.9,29.97,West,270,0.0,0.0,40,0.00,,---,0.00,VWS V14.01,2013-03-07 02:00:00,
2013-03-06 21:03:00,47.5,23.8,29.94,WNW,292,0.0,0.0,39,0.00,,---,0.00,VWS V14.01,2013-03-07 02:03:00,
2013-03-06 21:05:00,46.6,23.6,29.97,WNW,292,0.0,0.0,40,0.00,,---,0.00,VWS V14.01,2013-03-07 02:05:00,
2013-03-06 21:08:00,47.5,23.8,29.94,North,0,0.0,0.0,39,0.00,,---,0.00,VWS V14.01,2013-03-07 02:08:00,
2013-03-06 21:10:00,46.6,23.6,29.97,WNW,292,0.0,0.0,40,0.00,,---,0.00,VWS V14.01,2013-03-07 02:10:00,
2013-03-06 21:13:00,47.5,24.4,29.94,WNW,292,0.9,3.4,40,0.00,,---,0.00,VWS V14.01,2013-03-07 02:13:00,
2013-03-06 21:15:00,46.8,23.7,29.97,NW,315,1.1,2.0,40,0.00,,---,0.00,VWS V14.01,2013-03-07 02:15:00,
2013-03-06 21:18:00,47.5,23.8,29.94,West,270,0.0,0.0,39,0.00,,---,0.00,VWS V14.01,2013-03-07 02:18:00,
2013-03-06 21:20:00,46.6,23.6,29.97,NNW,338,0.0,1.1,40,0.00,,---,0.00,VWS V14.01,2013-03-07 02:20:00,
2013-03-06 21:23:00,47.5,24.4,29.94,NNW,338,0.0,1.6,40,0.00,,---,0.00,VWS V14.01,2013-03-07 02:23:00,
2013-03-06 21:25:00,47.1,24.1,29.97,NNW,338,3.1,3.1,40,0.00,,---,0.00,VWS V14.01,2013-03-07 02:25:00,
2013-03-06 21:28:00,47.7,24.5,29.94,NW,315,0.0,2.0,40,0.00,,---,0.00,VWS V14.01,2013-03-07 02:28:00,
2013-03-06 21:30:00,47.3,24.2,29.97,NW,315,2.2,3.1,40,0.00,,---,0.00,VWS V14.01,2013-03-07 02:30:00,
2013-03-06 21:33:00,48.0,24.9,29.94,WNW,292,0.0,1.1,40,0.00,,---,0.00,VWS V14.01,2013-03-07 02:33:00,
2013-03-06 21:35:00,47.5,24.4,29.97,WSW,248,2.7,2.9,40,0.00,,---,0.00,VWS V14.01,2013-03-07 02:35:00,
2013-03-06 21:38:00,48.0,24.9,29.94,NW,315,0.0,1.6,40,0.00,,---,0.00,VWS V14.01,2013-03-07 02:38:00,
2013-03-06 21:40:00,47.8,24.7,29.97,NNW,338,4.0,4.7,40,0.00,,---,0.00,VWS V14.01,2013-03-07 02:40:00,
2013-03-06 21:43:00,47.8,24.7,29.94,WNW,292,0.0,0.0,40,0.00,,---,0.00,VWS V14.01,2013-03-07 02:43:00,
2013-03-06 21:45:00,47.7,23.9,29.97,NW,315,2.0,4.0,39,0.00,,---,0.00,VWS V14.01,2013-03-07 02:45:00,
2013-03-06 21:48:00,47.5,24.4,29.94,WNW,292,0.0,0.0,40,0.00,,---,0.00,VWS V14.01,2013-03-07 02:48:00,
2013-03-06 21:50:00,47.5,23.8,29.97,NW,315,1.1,3.4,39,0.00,,---,0.00,VWS V14.01,2013-03-07 02:50:00,
2013-03-06 21:53:00,47.3,24.2,29.94,WNW,292,0.0,0.0,40,0.00,,---,0.00,VWS V14.01,2013-03-07 02:53:00,
2013-03-06 21:55:00,47.5,23.8,29.97,NNW,338,2.5,3.8,39,0.00,,---,0.00,VWS V14.01,2013-03-07 02:55:00,
2013-03-06 21:58:00,47.1,24.1,29.97,NW,315,0.0,0.0,40,0.00,,---,0.00,VWS V14.01,2013-03-07 02:58:00,
2013-03-06 22:00:00,47.5,23.8,30.00,NW,315,2.7,3.6,39,0.00,,---,0.00,VWS V14.01,2013-03-07 03:00:00,
2013-03-06 22:03:00,46.8,23.7,29.97,West,270,0.0,0.0,40,0.00,,---,0.00,VWS V14.01,2013-03-07 03:03:00,
2013-03-06 22:05:00,47.3,23.6,30.00,NNW,338,2.9,3.1,39,0.00,,---,0.00,VWS V14.01,2013-03-07 03:05:00,
2013-03-06 22:08:00,46.6,23.6,29.97,WNW,292,0.0,0.0,40,0.00,,---,0.00,VWS V14.01,2013-03-07 03:08:00,
2013-03-06 22:10:00,47.1,23.5,30.00,NW,315,2.2,4.7,39,0.00,,---,0.00,VWS V14.01,2013-03-07 03:10:00,
2013-03-06 22:13:00,46.6,23.6,29.97,NW,315,1.3,1.3,40,0.00,,---,0.00,VWS V14.01,2013-03-07 03:13:00,
2013-03-06 22:15:00,46.8,23.1,30.00,NNW,338,1.6,3.6,39,0.00,,---,0.00,VWS V14.01,2013-03-07 03:15:00,
2013-03-06 22:18:00,46.8,23.7,29.97,NW,315,0.0,1.1,40,0.00,,---,0.00,VWS V14.01,2013-03-07 03:18:00,
2013-03-06 22:20:00,46.6,23.0,30.00,NNW,338,2.7,3.6,39,0.00,,---,0.00,VWS V14.01,2013-03-07 03:20:00,
2013-03-06 22:23:00,46.8,23.7,29.97,WNW,292,0.0,0.0,40,0.00,,---,0.00,VWS V14.01,2013-03-07 03:23:00,
2013-03-06 22:25:00,46.4,22.8,30.00,NNW,338,2.5,3.4,39,0.00,,---,0.00,VWS V14.01,2013-03-07 03:25:00,
2013-03-06 22:28:00,47.3,24.2,29.97,NW,315,1.3,3.1,40,0.00,,---,0.00,VWS V14.01,2013-03-07 03:28:00,
2013-03-06 22:30:00,46.4,22.8,29.97,NW,315,1.3,3.8,39,0.00,,---,0.00,VWS V14.01,2013-03-07 03:30:00,
2013-03-06 22:33:00,47.3,24.2,29.97,NNW,338,1.1,2.2,40,0.00,,---,0.00,VWS V14.01,2013-03-07 03:33:00,
2013-03-06 22:35:00,46.4,22.8,29.97,NNW,338,0.0,3.4,39,0.00,,---,0.00,VWS V14.01,2013-03-07 03:35:00,
2013-03-06 22:38:00,47.7,24.5,29.97,NW,315,1.6,4.0,40,0.00,,---,0.00,VWS V14.01,2013-03-07 03:38:00,
2013-03-06 22:40:00,46.4,22.8,29.97,WNW,292,4.0,4.3,39,0.00,,---,0.00,VWS V14.01,2013-03-07 03:40:00,
2013-03-06 22:43:00,47.8,24.1,29.97,NNW,338,0.9,4.0,39,0.00,,---,0.00,VWS V14.01,2013-03-07 03:43:00,
2013-03-06 22:45:00,46.2,22.6,30.00,NNW,338,3.1,4.0,39,0.00,,---,0.00,VWS V14.01,2013-03-07 03:45:00,
2013-03-06 22:48:00,47.7,23.9,29.97,WNW,292,2.0,2.9,39,0.00,,---,0.00,VWS V14.01,2013-03-07 03:48:00,
2013-03-06 22:50:00,46.2,22.6,30.00,NNW,338,2.5,4.0,39,0.00,,---,0.00,VWS V14.01,2013-03-07 03:50:00,
2013-03-06 22:53:00,47.5,23.8,29.97,NW,315,2.9,3.1,39,0.00,,---,0.00,VWS V14.01,2013-03-07 03:53:00,
2013-03-06 22:55:00,46.0,22.5,30.00,NNW,338,3.1,4.0,39,0.00,,---,0.00,VWS V14.01,2013-03-07 03:55:00,
2013-03-06 22:58:00,47.5,23.8,30.00,NW,315,2.7,3.6,39,0.00,,---,0.00,VWS V14.01,2013-03-07 03:58:00,
2013-03-06 23:00:00,46.0,22.5,29.97,NNW,338,2.5,3.6,39,0.00,,---,0.00,VWS V14.01,2013-03-07 04:00:00,
2013-03-06 23:03:00,47.3,23.6,30.00,NW,315,2.2,3.1,39,0.00,,---,0.00,VWS V14.01,2013-03-07 04:03:00,
2013-03-06 23:05:00,46.0,22.5,29.97,NNW,338,3.4,3.8,39,0.00,,---,0.00,VWS V14.01,2013-03-07 04:05:00,
2013-03-06 23:08:00,47.3,23.6,30.00,NW,315,1.6,4.7,39,0.00,,---,0.00,VWS V14.01,2013-03-07 04:08:00,
2013-03-06 23:10:00,46.0,22.5,29.97,NNW,338,1.6,4.3,39,0.00,,---,0.00,VWS V14.01,2013-03-07 04:10:00,
2013-03-06 23:13:00,46.9,23.3,30.00,NNW,338,2.7,3.6,39,0.00,,---,0.00,VWS V14.01,2013-03-07 04:13:00,
2013-03-06 23:15:00,45.9,22.3,29.97,NNW,338,2.5,3.6,39,0.00,,---,0.00,VWS V14.01,2013-03-07 04:15:00,
2013-03-06 23:18:00,46.6,23.0,30.00,NW,315,1.3,2.5,39,0.00,,---,0.00,VWS V14.01,2013-03-07 04:18:00,
2013-03-06 23:20:00,45.5,22.0,29.97,NNW,338,1.3,3.4,39,0.00,,---,0.00,VWS V14.01,2013-03-07 04:20:00,
2013-03-06 23:23:00,46.4,22.8,30.00,NW,315,2.0,2.9,39,0.00,,---,0.00,VWS V14.01,2013-03-07 04:23:00,
2013-03-06 23:25:00,45.5,22.0,29.97,NNW,338,3.4,4.0,39,0.00,,---,0.00,VWS V14.01,2013-03-07 04:25:00,
2013-03-06 23:28:00,46.4,22.8,29.97,NNW,338,2.5,3.1,39,0.00,,---,0.00,VWS V14.01,2013-03-07 04:28:00,
2013-03-06 23:30:00,45.3,21.8,29.97,NNW,338,2.5,3.8,39,0.00,,---,0.00,VWS V14.01,2013-03-07 04:30:00,
2013-03-06 23:33:00,46.4,22.8,29.97,NNW,338,2.0,2.9,39,0.00,,---,0.00,VWS V14.01,2013-03-07 04:33:00,
2013-03-06 23:35:00,45.1,21.7,29.97,NW,315,2.9,3.6,39,0.00,,---,0.00,VWS V14.01,2013-03-07 04:35:00,
2013-03-06 23:38:00,46.2,22.6,29.97,WNW,292,2.7,3.6,39,0.00,,---,0.00,VWS V14.01,2013-03-07 04:38:00,
2013-03-06 23:40:00,45.0,21.5,29.97,NNW,338,2.7,3.6,39,0.00,,---,0.00,VWS V14.01,2013-03-07 04:40:00,
2013-03-06 23:43:00,46.4,22.8,30.00,NNW,338,3.1,4.0,39,0.00,,---,0.00,VWS V14.01,2013-03-07 04:43:00,
2013-03-06 23:45:00,45.0,21.5,29.97,NW,315,1.3,3.8,39,0.00,,---,0.00,VWS V14.01,2013-03-07 04:45:00,
2013-03-06 23:48:00,46.2,22.6,30.00,NNW,338,3.4,4.0,39,0.00,,---,0.00,VWS V14.01,2013-03-07 04:48:00,
2013-03-06 23:50:00,44.8,21.4,29.97,NNW,338,2.5,3.6,39,0.00,,---,0.00,VWS V14.01,2013-03-07 04:50:00,
2013-03-06 23:53:00,46.2,22.6,30.00,WNW,292,2.5,3.1,39,0.00,,---,0.00,VWS V14.01,2013-03-07 04:53:00,
2013-03-06 23:55:00,44.8,21.4,29.97,NW,315,2.9,3.6,39,0.00,,---,0.00,VWS V14.01,2013-03-07 04:55:00,
2013-03-06 23:58:00,46.0,22.5,29.97,NW,315,2.7,3.6,39,0.00,,---,0.00,VWS V14.01,2013-03-07 04:58:00,